createdAt,value
2023-05-22T00:01:21.322Z,10.90
2023-05-22T00:03:50.798Z,11.30
2023-05-22T00:06:18.822Z,12.30
2023-05-22T00:08:46.825Z,11.23
2023-05-22T00:11:14.881Z,11.17
2023-05-22T00:13:42.916Z,10.83
2023-05-22T00:16:10.971Z,12.33
2023-05-22T00:18:42.802Z,12.03
2023-05-22T00:21:12.642Z,11.97
2023-05-22T00:23:41.509Z,11.83
2023-05-22T00:26:09.613Z,12.23
2023-05-22T00:28:37.612Z,12.50
2023-05-22T00:31:05.824Z,12.60
2023-05-22T00:33:34.166Z,12.40
2023-05-22T00:36:04.065Z,12.77
2023-05-22T00:38:33.295Z,11.83
2023-05-22T00:41:01.773Z,12.17
2023-05-22T00:43:30.186Z,11.40
2023-05-22T00:45:59.268Z,12.67
2023-05-22T00:48:27.332Z,12.77
2023-05-22T00:50:58.457Z,12.73
2023-05-22T00:53:29.701Z,12.83
2023-05-22T00:55:59.866Z,12.43
2023-05-22T00:58:28.360Z,13.43
2023-05-22T01:00:56.562Z,12.83
2023-05-22T01:03:27.689Z,12.27
2023-05-22T01:05:56.461Z,12.53
2023-05-22T01:08:24.642Z,13.33
2023-05-22T01:11:02.788Z,14.70
2023-05-22T01:13:41.037Z,13.80
2023-05-22T01:16:15.831Z,13.47
2023-05-22T01:18:50.395Z,12.07
2023-05-22T01:21:24.933Z,12.03
2023-05-22T01:24:20.821Z,12.47
2023-05-22T01:27:35.122Z,11.07
2023-05-22T01:30:20.006Z,10.93
2023-05-22T01:32:50.702Z,10.50
2023-05-22T01:35:20.340Z,10.60
2023-05-22T01:37:48.833Z,10.63
2023-05-22T01:40:18.631Z,10.87
2023-05-22T01:42:46.954Z,11.00
2023-05-22T01:45:16.003Z,11.03
2023-05-22T01:47:45.063Z,10.73
2023-05-22T01:50:15.457Z,11.03
2023-05-22T01:52:53.378Z,10.77
2023-05-22T01:55:27.474Z,10.53
2023-05-22T01:58:00.711Z,10.53
2023-05-22T02:00:30.018Z,10.97
2023-05-22T02:03:01.745Z,11.47
2023-05-22T02:05:32.470Z,11.37
2023-05-22T02:08:01.836Z,10.80
2023-05-22T02:10:31.477Z,10.47
2023-05-22T02:12:59.591Z,11.50
2023-05-22T02:15:27.630Z,10.77
2023-05-22T02:17:55.664Z,11.27
2023-05-22T02:20:24.103Z,11.20
2023-05-22T02:22:53.448Z,11.87
2023-05-22T02:25:21.505Z,11.03
2023-05-22T02:27:49.770Z,11.93
2023-05-22T02:30:17.873Z,11.87
2023-05-22T02:32:46.034Z,11.67
2023-05-22T02:35:13.999Z,10.97
2023-05-22T02:37:42.226Z,11.93
2023-05-22T02:40:12.403Z,11.70
2023-05-22T02:42:40.417Z,12.03
2023-05-22T02:45:11.198Z,11.67
2023-05-22T02:47:39.497Z,11.67
2023-05-22T02:50:08.958Z,11.50
2023-05-22T02:52:39.373Z,11.40
2023-05-22T02:55:08.600Z,11.97
2023-05-22T02:57:37.956Z,11.70
2023-05-22T03:00:07.942Z,11.07
2023-05-22T03:02:36.577Z,12.37
2023-05-22T03:05:05.494Z,11.90
2023-05-22T03:07:34.818Z,12.97
2023-05-22T03:10:02.989Z,13.47
2023-05-22T03:12:31.121Z,12.27
2023-05-22T03:15:01.674Z,12.53
2023-05-22T03:17:30.031Z,12.60
2023-05-22T03:19:59.055Z,12.43
2023-05-22T03:22:27.233Z,11.90
2023-05-22T03:24:55.259Z,13.03
2023-05-22T03:27:23.309Z,12.80
2023-05-22T03:29:51.827Z,12.97
2023-05-22T03:32:21.206Z,13.73
2023-05-22T03:34:53.763Z,12.30
2023-05-22T03:37:24.762Z,13.13
2023-05-22T03:39:54.173Z,13.53
2023-05-22T03:42:22.196Z,13.27
2023-05-22T03:44:51.628Z,13.77
2023-05-22T03:47:21.001Z,14.03
2023-05-22T03:49:48.988Z,13.30
2023-05-22T03:52:17.018Z,13.23
2023-05-22T03:54:45.311Z,12.23
2023-05-22T03:57:14.055Z,13.33
2023-05-22T03:59:41.990Z,12.00
2023-05-22T04:02:13.153Z,13.53
2023-05-22T04:04:46.424Z,14.07
2023-05-22T04:07:14.739Z,12.47
2023-05-22T04:09:42.760Z,13.10
2023-05-22T04:12:11.420Z,12.77
2023-05-22T04:14:39.452Z,13.10
2023-05-22T04:17:10.001Z,14.03
2023-05-22T04:19:38.616Z,13.87
2023-05-22T04:22:08.778Z,12.77
2023-05-22T04:24:39.717Z,13.03
2023-05-22T04:29:43.585Z,13.90
2023-05-22T04:32:19.668Z,15.07
2023-05-22T04:34:50.254Z,13.97
2023-05-22T04:37:20.456Z,14.43
2023-05-22T04:39:48.998Z,15.70
2023-05-22T04:42:18.420Z,15.77
2023-05-22T04:44:47.441Z,16.07
2023-05-22T04:47:15.882Z,16.73
2023-05-22T04:49:45.882Z,16.60
2023-05-22T04:52:14.047Z,16.70
2023-05-22T04:54:44.804Z,16.80
2023-05-22T04:57:12.838Z,17.13
2023-05-22T04:59:41.466Z,18.23
2023-05-22T05:02:09.487Z,18.57
2023-05-22T05:04:38.925Z,18.17
2023-05-22T05:07:07.269Z,19.03
2023-05-22T05:09:36.052Z,18.00
2023-05-22T05:12:06.305Z,18.20
2023-05-22T05:14:34.589Z,19.47
2023-05-22T05:17:07.519Z,18.07
2023-05-22T05:19:37.068Z,17.43
2023-05-22T05:22:07.586Z,17.67
2023-05-22T05:24:35.620Z,19.47
2023-05-22T05:27:04.994Z,16.43
2023-05-22T05:29:33.060Z,17.40
2023-05-22T05:32:02.229Z,17.60
2023-05-22T05:34:30.305Z,17.33
2023-05-22T05:36:58.331Z,17.83
2023-05-22T05:39:28.660Z,17.37
2023-05-22T05:41:56.667Z,16.60
2023-05-22T05:44:25.998Z,16.43
2023-05-22T05:46:55.964Z,16.53
2023-05-22T05:49:23.997Z,16.63
2023-05-22T05:51:52.303Z,16.47
2023-05-22T05:54:20.440Z,16.07
2023-05-22T05:56:48.614Z,15.67
2023-05-22T05:59:16.606Z,15.57
2023-05-22T06:01:47.149Z,15.77
2023-05-22T06:04:20.196Z,16.33
2023-05-22T06:06:48.230Z,15.27
2023-05-22T06:09:16.990Z,14.90
2023-05-22T06:11:45.022Z,15.17
2023-05-22T06:14:13.712Z,13.77
2023-05-22T06:16:43.984Z,13.67
2023-05-22T06:19:13.559Z,13.13
2023-05-22T06:21:42.902Z,13.70
2023-05-22T06:24:11.102Z,12.67
2023-05-22T06:26:40.177Z,12.90
2023-05-22T06:29:08.344Z,13.43
2023-05-22T06:31:38.786Z,13.33
2023-05-22T06:34:07.254Z,13.10
2023-05-22T06:36:38.578Z,12.13
2023-05-22T06:39:07.033Z,12.93
2023-05-22T06:41:35.677Z,13.33
2023-05-22T06:44:03.720Z,13.40
2023-05-22T06:46:31.803Z,15.43
2023-05-22T06:48:59.836Z,15.40
2023-05-22T06:51:27.913Z,15.43
2023-05-22T06:53:57.647Z,15.30
2023-05-22T06:56:27.803Z,15.03
2023-05-22T06:58:56.164Z,14.77
2023-05-22T07:01:37.533Z,13.50
2023-05-22T07:04:06.461Z,13.43
2023-05-22T07:06:40.712Z,14.13
2023-05-22T07:09:11.563Z,14.47
2023-05-22T07:11:39.762Z,14.67
2023-05-22T07:17:13.162Z,16.90
2023-05-22T07:19:41.252Z,17.53
2023-05-22T07:22:12.024Z,17.20
2023-05-22T07:24:41.477Z,17.43
2023-05-22T07:27:27.325Z,16.93
2023-05-22T07:30:10.962Z,17.20
2023-05-22T07:32:40.736Z,16.63
2023-05-22T07:35:12.421Z,16.47
2023-05-22T07:37:43.101Z,16.17
2023-05-22T07:40:20.478Z,15.67
2023-05-22T07:42:49.839Z,15.73
2023-05-22T07:45:18.190Z,14.40
2023-05-22T07:47:46.226Z,13.67
2023-05-22T07:53:19.635Z,13.87
2023-05-22T07:55:57.170Z,14.07
2023-05-22T07:58:25.377Z,13.93
2023-05-22T08:00:55.178Z,13.70
2023-05-22T08:03:24.368Z,12.97
2023-05-22T08:05:53.984Z,13.40
2023-05-22T08:08:22.510Z,14.90
2023-05-22T08:11:03.232Z,13.10
2023-05-22T08:13:32.543Z,13.47
2023-05-22T08:16:01.671Z,11.37
2023-05-22T08:18:30.340Z,10.40
2023-05-22T08:21:00.156Z,9.97
2023-05-22T08:23:28.403Z,9.77
2023-05-22T08:25:57.873Z,10.47
2023-05-22T08:28:25.935Z,10.57
2023-05-22T08:30:55.336Z,9.90
2023-05-22T08:33:23.428Z,10.10
2023-05-22T08:35:51.524Z,9.77
2023-05-22T08:38:19.469Z,9.50
2023-05-22T08:40:49.720Z,9.80
2023-05-22T08:43:21.615Z,9.43
2023-05-22T08:45:57.967Z,8.63
2023-05-22T08:48:30.267Z,8.90
2023-05-22T08:51:03.223Z,8.47
2023-05-22T08:53:35.229Z,8.37
2023-05-22T08:56:04.789Z,8.53
2023-05-22T08:58:36.345Z,9.03
2023-05-22T09:01:06.317Z,9.37
2023-05-22T09:03:35.082Z,8.73
2023-05-22T09:06:11.561Z,9.17
2023-05-22T09:08:42.844Z,9.13
2023-05-22T09:11:12.556Z,9.00
2023-05-22T09:13:44.733Z,9.17
2023-05-22T09:16:19.723Z,10.07
2023-05-22T09:18:48.117Z,9.60
2023-05-22T09:21:28.960Z,9.47
2023-05-22T09:24:01.287Z,9.57
2023-05-22T09:26:29.991Z,10.17
2023-05-22T09:29:00.900Z,10.33
2023-05-22T09:31:30.648Z,10.20
2023-05-22T09:33:59.165Z,9.93
2023-05-22T09:36:35.679Z,10.20
2023-05-22T09:39:05.089Z,9.70
2023-05-22T09:41:41.479Z,10.03
2023-05-22T09:44:21.566Z,9.87
2023-05-22T09:46:50.025Z,10.17
2023-05-22T09:49:18.016Z,10.27
2023-05-22T09:51:50.744Z,9.83
2023-05-22T09:54:23.802Z,9.83
2023-05-22T09:56:56.699Z,9.00
2023-05-22T09:59:32.275Z,9.10
2023-05-22T10:02:02.314Z,8.70
2023-05-22T10:04:34.132Z,10.23
2023-05-22T10:07:04.365Z,8.50
2023-05-22T10:09:35.735Z,8.87
2023-05-22T10:12:16.232Z,8.50
2023-05-22T10:14:47.610Z,8.93
2023-05-22T10:17:16.975Z,8.93
2023-05-22T10:19:46.749Z,8.90
2023-05-22T10:22:22.593Z,9.60
2023-05-22T10:24:57.756Z,8.48
2023-05-22T10:27:26.114Z,7.50
2023-05-22T10:30:01.322Z,6.67
2023-05-22T10:32:36.572Z,7.57
2023-05-22T10:35:19.135Z,8.00
2023-05-22T10:37:54.832Z,7.77
2023-05-22T10:40:33.213Z,7.32
2023-05-22T10:43:14.363Z,7.47
2023-05-22T10:45:53.304Z,8.98
2023-05-22T10:48:23.573Z,7.45
2023-05-22T10:50:56.320Z,8.20
2023-05-22T10:53:26.763Z,8.17
2023-05-22T10:55:56.815Z,8.43
2023-05-22T10:58:31.947Z,8.32
2023-05-22T11:01:16.809Z,7.40
2023-05-22T11:04:05.223Z,7.97
2023-05-22T11:06:40.205Z,8.27
2023-05-22T11:09:27.700Z,8.30
2023-05-22T11:12:21.702Z,9.73
2023-05-22T11:14:56.286Z,7.63
2023-05-22T11:17:33.038Z,8.53
2023-05-22T11:20:05.313Z,8.32
2023-05-22T11:22:42.507Z,7.38
2023-05-22T11:25:17.337Z,8.00
2023-05-22T11:27:52.944Z,7.90
2023-05-22T11:30:22.057Z,7.70
2023-05-22T11:32:51.799Z,8.07
2023-05-22T11:35:21.559Z,7.47
2023-05-22T11:37:50.935Z,7.95
2023-05-22T11:40:24.725Z,7.95
2023-05-22T11:42:56.819Z,7.40
2023-05-22T11:45:28.237Z,7.32
2023-05-22T11:47:58.169Z,8.32
2023-05-22T11:50:41.728Z,7.30
2023-05-22T11:53:16.228Z,7.40
2023-05-22T11:55:44.246Z,8.30
2023-05-22T11:58:12.444Z,7.75
2023-05-22T12:00:43.209Z,6.97
2023-05-22T12:03:17.654Z,7.13
2023-05-22T12:05:47.720Z,7.07
2023-05-22T12:08:17.913Z,6.22
2023-05-22T12:10:49.799Z,7.47
2023-05-22T12:13:26.196Z,6.63
2023-05-22T12:15:56.197Z,6.80
2023-05-22T12:18:36.543Z,7.40
2023-05-22T12:21:08.294Z,5.70
2023-05-22T12:23:36.287Z,7.10
2023-05-22T12:26:09.986Z,7.13
2023-05-22T12:28:41.465Z,7.63
2023-05-22T12:31:09.881Z,7.40
2023-05-22T12:33:41.888Z,8.13
2023-05-22T12:36:10.465Z,8.35
2023-05-22T12:38:40.136Z,7.77
2023-05-22T12:41:28.983Z,7.88
2023-05-22T12:44:08.386Z,7.47
2023-05-22T12:46:37.750Z,6.85
2023-05-22T12:49:07.210Z,7.25
2023-05-22T12:51:35.741Z,6.50
2023-05-22T12:54:08.477Z,6.57
2023-05-22T12:56:39.455Z,6.60
2023-05-22T12:59:09.005Z,7.20
2023-05-22T13:01:37.972Z,6.40
2023-05-22T13:04:07.367Z,5.87
2023-05-22T13:06:35.357Z,6.23
2023-05-22T13:09:03.388Z,5.90
2023-05-22T13:11:35.150Z,5.50
2023-05-22T13:14:03.175Z,5.43
2023-05-22T13:16:32.563Z,5.90
2023-05-22T13:19:02.561Z,7.23
2023-05-22T13:21:33.076Z,5.20
2023-05-22T13:24:01.046Z,5.65
2023-05-22T13:26:32.629Z,6.50
2023-05-22T13:29:00.933Z,6.30
2023-05-22T13:31:33.240Z,7.83
2023-05-22T13:34:03.084Z,6.03
2023-05-22T13:36:32.853Z,7.27
2023-05-22T13:39:00.980Z,7.33
2023-05-22T13:41:32.887Z,6.20
2023-05-22T13:44:00.840Z,5.50
2023-05-22T13:46:28.809Z,5.60
2023-05-22T13:48:56.873Z,5.27
2023-05-22T13:51:24.934Z,6.17
2023-05-22T13:53:56.660Z,5.33
2023-05-22T13:56:37.096Z,4.83
2023-05-22T13:59:07.826Z,5.10
2023-05-22T14:01:37.443Z,5.47
2023-05-22T14:04:05.961Z,5.57
2023-05-22T14:06:34.201Z,6.10
2023-05-22T14:09:07.034Z,5.87
2023-05-22T14:11:36.608Z,5.20
2023-05-22T14:14:06.195Z,5.10
2023-05-22T14:16:34.232Z,4.87
2023-05-22T14:19:04.813Z,5.53
2023-05-22T14:21:34.517Z,5.07
2023-05-22T14:24:04.530Z,4.73
2023-05-22T14:26:33.475Z,4.77
2023-05-22T14:29:03.947Z,3.90
2023-05-22T14:31:32.096Z,3.50
2023-05-22T14:34:00.176Z,4.00
2023-05-22T14:36:28.966Z,3.50
2023-05-22T14:39:00.226Z,4.10
2023-05-22T14:41:30.596Z,3.43
2023-05-22T14:43:59.701Z,3.80
2023-05-22T14:46:28.173Z,3.63
2023-05-22T14:48:56.242Z,4.00
2023-05-22T14:51:27.557Z,4.43
2023-05-22T14:53:55.564Z,3.73
2023-05-22T14:56:28.538Z,3.43
2023-05-22T14:58:58.422Z,3.67
2023-05-22T15:01:26.519Z,3.50
2023-05-22T15:03:54.494Z,3.20
2023-05-22T15:06:23.591Z,3.30
2023-05-22T15:08:51.556Z,3.60
2023-05-22T15:11:22.155Z,3.20
2023-05-22T15:13:50.670Z,3.20
2023-05-22T15:16:21.719Z,3.50
2023-05-22T15:19:04.336Z,3.30
2023-05-22T15:21:32.472Z,3.77
2023-05-22T15:24:00.710Z,3.40
2023-05-22T15:26:28.666Z,3.30
2023-05-22T15:29:03.611Z,3.20
2023-05-22T15:31:33.053Z,3.13
2023-05-22T15:34:04.036Z,3.20
2023-05-22T15:36:36.469Z,2.97
2023-05-22T15:39:07.230Z,3.23
2023-05-22T15:41:38.907Z,3.53
2023-05-22T15:44:14.701Z,3.53
2023-05-22T15:46:44.018Z,3.40
2023-05-22T15:49:12.045Z,3.10
2023-05-22T15:51:40.109Z,2.90
2023-05-22T15:54:09.627Z,2.87
2023-05-22T15:56:37.549Z,2.93
2023-05-22T15:59:06.878Z,3.27
2023-05-22T16:01:35.358Z,3.67
2023-05-22T16:04:07.141Z,3.77
2023-05-22T16:06:36.584Z,4.00
2023-05-22T16:09:07.028Z,3.80
2023-05-22T16:11:37.817Z,4.10
2023-05-22T16:14:05.792Z,4.37
2023-05-22T16:16:35.385Z,3.90
2023-05-22T16:19:05.121Z,4.07
2023-05-22T16:21:33.229Z,3.77
2023-05-22T16:24:01.197Z,3.90
2023-05-22T16:26:41.079Z,4.10
2023-05-22T16:29:10.837Z,4.23
2023-05-22T16:31:38.792Z,3.70
2023-05-22T16:34:09.327Z,4.20
2023-05-22T16:36:38.295Z,4.40
2023-05-22T16:39:06.387Z,4.53
2023-05-22T16:41:35.566Z,4.40
2023-05-22T16:44:04.894Z,4.40
2023-05-22T16:46:35.464Z,4.23
2023-05-22T16:49:03.645Z,4.63
2023-05-22T16:51:33.272Z,4.37
2023-05-22T16:54:01.629Z,4.80
2023-05-22T16:56:38.357Z,5.10
2023-05-22T16:59:07.651Z,4.83
2023-05-22T17:01:37.349Z,5.17
2023-05-22T17:04:06.837Z,6.10
2023-05-22T17:06:35.505Z,6.23
2023-05-22T17:09:07.342Z,5.50
2023-05-22T17:11:35.233Z,6.73
2023-05-22T17:14:03.338Z,6.17
2023-05-22T17:16:34.141Z,7.33
2023-05-22T17:19:02.279Z,6.47
2023-05-22T17:21:34.710Z,6.20
2023-05-22T17:24:02.648Z,5.77
2023-05-22T17:26:33.397Z,5.53
2023-05-22T17:29:01.402Z,5.17
2023-05-22T17:31:29.448Z,5.70
2023-05-22T17:33:58.773Z,6.07
2023-05-22T17:36:26.735Z,5.70
2023-05-22T17:38:58.071Z,5.97
2023-05-22T17:41:41.656Z,6.37
2023-05-22T17:44:09.561Z,5.70
2023-05-22T17:46:37.575Z,5.90
2023-05-22T17:49:06.972Z,5.27
2023-05-22T17:51:37.482Z,5.30
2023-05-22T17:54:06.470Z,5.27
2023-05-22T17:56:34.400Z,4.77
2023-05-22T17:59:02.422Z,4.83
2023-05-22T18:01:31.772Z,4.53
2023-05-22T18:04:00.587Z,5.00
2023-05-22T18:06:30.286Z,4.80
2023-05-22T18:08:58.617Z,5.53
2023-05-22T18:11:26.506Z,5.43
2023-05-22T18:13:56.774Z,5.40
2023-05-22T18:16:24.818Z,6.33
2023-05-22T18:18:53.484Z,6.00
2023-05-22T18:21:21.840Z,6.60
2023-05-22T18:23:56.174Z,6.20
2023-05-22T18:26:26.775Z,5.80
2023-05-22T18:28:57.229Z,4.70
2023-05-22T18:31:25.212Z,5.03
2023-05-22T18:33:54.983Z,4.90
2023-05-22T18:36:23.222Z,4.90
2023-05-22T18:38:54.735Z,5.50
2023-05-22T18:41:26.632Z,5.30
2023-05-22T18:43:56.551Z,5.03
2023-05-22T18:46:26.464Z,5.30
2023-05-22T18:48:55.288Z,5.20
2023-05-22T18:51:23.530Z,5.63
2023-05-22T18:53:54.673Z,6.13
2023-05-22T18:56:24.867Z,6.27
2023-05-22T18:58:55.655Z,5.80
2023-05-22T19:01:27.513Z,6.27
2023-05-22T19:03:55.822Z,6.93
2023-05-22T19:06:28.983Z,6.23
2023-05-22T19:08:58.488Z,6.90
2023-05-22T19:11:42.598Z,7.23
2023-05-22T19:14:11.856Z,6.57
2023-05-22T19:16:40.576Z,6.97
2023-05-22T19:19:11.357Z,7.17
2023-05-22T19:21:40.353Z,7.23
2023-05-22T19:24:09.766Z,7.37
2023-05-22T19:26:40.580Z,7.07
2023-05-22T19:29:08.988Z,6.63
2023-05-22T19:31:37.238Z,7.07
2023-05-22T19:34:05.543Z,10.00
2023-05-22T19:36:34.833Z,6.77
2023-05-22T19:39:08.695Z,7.47
2023-05-22T19:41:39.278Z,7.77
2023-05-22T19:44:07.241Z,6.70
2023-05-22T19:46:36.430Z,6.40
2023-05-22T19:49:05.508Z,5.60
2023-05-22T19:51:34.544Z,5.77
2023-05-22T19:54:04.300Z,5.40
2023-05-22T19:56:34.973Z,6.30
2023-05-22T19:59:11.390Z,6.00
2023-05-22T20:01:43.267Z,5.90
2023-05-22T20:04:13.351Z,5.43
2023-05-22T20:06:42.108Z,5.10
2023-05-22T20:09:10.049Z,5.43
2023-05-22T20:11:42.166Z,4.90
2023-05-22T20:14:13.496Z,4.80
2023-05-22T20:16:41.902Z,8.03
2023-05-22T20:19:10.441Z,5.40
2023-05-22T20:21:38.816Z,5.03
2023-05-22T20:24:12.046Z,3.00
2023-05-22T20:26:40.025Z,2.70
2023-05-22T20:29:07.945Z,2.80
2023-05-22T20:31:38.349Z,3.70
2023-05-22T20:34:14.187Z,2.77
2023-05-22T20:36:42.718Z,3.80
2023-05-22T20:39:11.912Z,3.50
2023-05-22T20:41:39.935Z,3.00
2023-05-22T20:44:09.424Z,3.17
2023-05-22T20:46:38.702Z,3.00
2023-05-22T20:49:06.623Z,3.00
2023-05-22T20:51:37.724Z,3.30
2023-05-22T20:54:06.081Z,3.30
2023-05-22T20:56:34.085Z,3.53
2023-05-22T20:59:03.299Z,3.67
2023-05-22T21:01:32.826Z,3.27
2023-05-22T21:04:04.459Z,3.47
2023-05-22T21:06:32.490Z,4.00
2023-05-22T21:09:08.854Z,4.33
2023-05-22T21:11:39.287Z,3.80
2023-05-22T21:14:07.228Z,4.40
2023-05-22T21:16:36.971Z,3.53
2023-05-22T21:19:09.989Z,3.70
2023-05-22T21:21:41.648Z,4.13
2023-05-22T21:24:10.437Z,3.83
2023-05-22T21:26:38.712Z,4.07
2023-05-22T21:29:07.660Z,4.20
2023-05-22T21:31:36.022Z,4.30
2023-05-22T21:34:04.180Z,4.50
2023-05-22T21:36:33.624Z,5.20
2023-05-22T21:39:03.535Z,4.60
2023-05-22T21:41:31.460Z,4.87
2023-05-22T21:44:04.217Z,5.27
2023-05-22T21:46:32.217Z,4.27
2023-05-22T21:49:02.899Z,4.53
2023-05-22T21:51:32.771Z,4.73
2023-05-22T21:54:03.102Z,5.00
2023-05-22T21:56:31.051Z,5.00
2023-05-22T21:58:59.151Z,5.10
2023-05-22T22:01:27.128Z,5.20
2023-05-22T22:03:55.864Z,5.87
2023-05-22T22:06:27.475Z,5.93
2023-05-22T22:09:00.034Z,6.10
2023-05-22T22:11:29.329Z,5.70
2023-05-22T22:13:57.355Z,5.80
2023-05-22T22:16:26.033Z,6.10
2023-05-22T22:18:54.091Z,6.57
2023-05-22T22:21:22.351Z,6.17
2023-05-22T22:23:50.601Z,5.73
2023-05-22T22:26:20.073Z,5.80
2023-05-22T22:28:49.455Z,5.13
2023-05-22T22:31:17.396Z,6.30
2023-05-22T22:33:47.517Z,5.50
2023-05-22T22:36:15.726Z,5.97
2023-05-22T22:38:43.610Z,6.10
2023-05-22T22:41:11.517Z,5.53
2023-05-22T22:43:39.743Z,6.10
2023-05-22T22:46:14.655Z,6.37
2023-05-22T22:48:42.722Z,6.97
2023-05-22T22:51:10.718Z,6.63
2023-05-22T22:53:38.689Z,6.73
2023-05-22T22:56:07.054Z,6.63
2023-05-22T22:58:37.073Z,7.23
2023-05-22T23:01:05.167Z,6.90
2023-05-22T23:03:41.635Z,7.00
2023-05-22T23:06:11.344Z,7.37
2023-05-22T23:08:39.564Z,7.23
2023-05-22T23:11:07.508Z,7.17
2023-05-22T23:13:35.461Z,6.97
2023-05-22T23:16:03.360Z,6.07
2023-05-22T23:18:31.290Z,7.37
2023-05-22T23:21:00.552Z,7.63
2023-05-22T23:23:29.995Z,7.80
2023-05-22T23:25:59.073Z,7.37
2023-05-22T23:28:28.911Z,7.50
2023-05-22T23:30:57.305Z,7.50
2023-05-22T23:33:25.260Z,7.70
2023-05-22T23:35:54.231Z,7.07
2023-05-22T23:38:23.811Z,7.30
2023-05-22T23:40:53.184Z,8.07
2023-05-22T23:43:32.501Z,7.87
2023-05-22T23:46:00.446Z,7.47
2023-05-22T23:48:28.454Z,7.40
2023-05-22T23:50:56.389Z,6.17
2023-05-22T23:53:25.676Z,6.37
2023-05-22T23:55:53.575Z,6.30
2023-05-22T23:58:22.987Z,5.33
